Time;durP1;ratioP1;P1;durP2;ratioP2;P2;SDS_P1;SDS_P2;PMS_P1;PMS_P2;Temp;Humidity;BMP_temperature;BMP_pressure;BME280_temperature;BME280_humidity;BME280_pressure;Samples;Min_cycle;Max_cycle;Signal;HPM_P1;HPM_P2
2022/10/05 00:01:16;;;;;;;4.25;1.20;;;16.70;99.90;;;;;;5033287;28;20061;-64
2022/10/05 00:03:43;;;;;;;5.90;1.50;;;16.70;99.90;;;;;;5033506;28;20049;-63
2022/10/05 00:06:10;;;;;;;7.05;1.83;;;16.80;99.90;;;;;;5031826;28;20113;-67
2022/10/05 00:08:37;;;;;;;8.27;1.65;;;16.70;99.90;;;;;;5015972;28;20385;-63
2022/10/05 00:11:03;;;;;;;8.80;1.50;;;16.70;99.90;;;;;;5033677;28;20476;-63
2022/10/05 00:13:30;;;;;;;6.45;1.23;;;16.70;99.90;;;;;;5033605;28;20049;-64
2022/10/05 00:15:57;;;;;;;5.03;1.23;;;16.80;99.90;;;;;;5030208;28;20041;-62
2022/10/05 00:18:23;;;;;;;4.38;1.00;;;16.80;99.90;;;;;;5033306;28;20072;-64
2022/10/05 00:20:50;;;;;;;5.05;1.35;;;16.80;99.90;;;;;;5032668;28;20144;-64
2022/10/05 00:23:17;;;;;;;6.32;1.42;;;16.80;99.90;;;;;;5033425;28;20069;-63
2022/10/05 00:25:44;;;;;;;6.22;1.50;;;16.70;99.90;;;;;;5033692;28;20038;-62
2022/10/05 00:28:10;;;;;;;6.15;1.70;;;16.70;99.90;;;;;;5031990;28;20045;-62
2022/10/05 00:30:37;;;;;;;6.82;1.50;;;16.80;99.90;;;;;;5033277;28;20053;-62
2022/10/05 00:33:04;;;;;;;6.35;1.30;;;16.80;99.90;;;;;;5033341;28;20037;-65
2022/10/05 00:35:30;;;;;;;7.22;1.20;;;16.80;99.90;;;;;;5033308;28;20080;-63
2022/10/05 00:37:57;;;;;;;9.00;1.50;;;16.70;99.90;;;;;;5015512;28;20136;-65
2022/10/05 00:40:24;;;;;;;5.60;1.33;;;16.70;99.90;;;;;;5032098;28;20045;-66
2022/10/05 00:42:51;;;;;;;5.40;1.33;;;16.80;99.90;;;;;;5033522;28;20038;-62
2022/10/05 00:45:17;;;;;;;6.57;1.35;;;16.80;99.90;;;;;;5032866;28;20081;-64
2022/10/05 00:47:44;;;;;;;9.95;1.23;;;16.80;99.90;;;;;;5031425;28;20125;-66
2022/10/05 00:50:12;;;;;;;5.47;1.33;;;16.70;99.90;;;;;;5015211;28;20045;-63
2022/10/05 00:52:38;;;;;;;6.05;1.15;;;16.80;99.90;;;;;;5031550;28;20041;-65
2022/10/05 00:55:05;;;;;;;3.78;1.25;;;16.70;99.90;;;;;;5032821;28;20571;-64
2022/10/05 00:57:32;;;;;;;7.60;1.10;;;16.70;99.90;;;;;;5033116;28;20034;-63
2022/10/05 00:59:59;;;;;;;4.70;1.25;;;16.80;99.90;;;;;;5032963;28;20493;-64
2022/10/05 01:02:26;;;;;;;5.35;1.20;;;16.80;99.90;;;;;;5015296;28;20069;-66
2022/10/05 01:04:53;;;;;;;3.70;1.02;;;16.70;99.90;;;;;;5014387;28;20053;-63
2022/10/05 01:07:19;;;;;;;6.47;1.23;;;16.70;99.90;;;;;;5031266;28;20128;-64
2022/10/05 01:09:46;;;;;;;5.10;1.50;;;16.70;99.90;;;;;;5033139;28;20065;-65
2022/10/05 01:12:13;;;;;;;5.97;1.00;;;16.70;99.90;;;;;;5034739;28;20119;-64
2022/10/05 01:14:39;;;;;;;4.30;1.17;;;16.70;99.90;;;;;;5036578;28;20073;-63
2022/10/05 01:17:07;;;;;;;6.10;1.40;;;16.70;99.90;;;;;;5019309;28;20041;-62
2022/10/05 01:19:33;;;;;;;5.10;1.10;;;16.70;99.90;;;;;;5036941;28;20124;-66
2022/10/05 01:22:00;;;;;;;4.68;1.17;;;16.70;99.90;;;;;;5034634;28;20084;-64
2022/10/05 01:24:27;;;;;;;7.85;1.20;;;16.70;99.90;;;;;;5036509;28;20053;-61
2022/10/05 01:26:54;;;;;;;4.35;1.20;;;16.70;99.90;;;;;;5036364;28;20077;-66
2022/10/05 01:29:20;;;;;;;7.22;1.40;;;16.70;99.90;;;;;;5036536;28;20128;-64
2022/10/05 01:31:47;;;;;;;5.60;1.30;;;16.70;99.90;;;;;;5034560;28;20069;-62
2022/10/05 01:34:14;;;;;;;5.72;1.17;;;16.70;99.90;;;;;;5036335;28;20058;-66
2022/10/05 01:36:42;;;;;;;4.22;1.10;;;16.70;99.90;;;;;;5018851;28;20136;-63
2022/10/05 01:39:09;;;;;;;6.85;1.30;;;16.70;99.90;;;;;;5036647;28;20059;-62
2022/10/05 01:41:36;;;;;;;5.05;1.23;;;16.70;99.90;;;;;;5017628;28;20129;-62
2022/10/05 01:44:02;;;;;;;5.45;1.38;;;16.70;99.90;;;;;;5035822;28;20080;-61
2022/10/05 01:46:29;;;;;;;4.95;1.23;;;16.70;99.90;;;;;;5036325;28;20045;-62
2022/10/05 01:48:56;;;;;;;3.97;1.10;;;16.70;99.90;;;;;;5036373;28;20042;-68
2022/10/05 01:51:23;;;;;;;4.68;1.35;;;16.70;99.90;;;;;;5035199;28;20037;-62
2022/10/05 01:53:49;;;;;;;3.90;1.10;;;16.70;99.90;;;;;;5036224;28;20041;-64
2022/10/05 01:56:17;;;;;;;4.97;1.50;;;16.70;99.90;;;;;;5018256;28;20048;-64
2022/10/05 01:58:44;;;;;;;7.90;1.42;;;16.70;99.90;;;;;;5018195;28;20041;-65
2022/10/05 02:01:11;;;;;;;4.03;1.20;;;16.80;99.90;;;;;;5035441;28;20033;-62
2022/10/05 02:03:38;;;;;;;8.13;1.40;;;16.70;99.90;;;;;;5017046;28;20049;-61
2022/10/05 02:06:05;;;;;;;5.65;1.40;;;16.80;99.90;;;;;;5018488;28;20053;-64
2022/10/05 02:08:31;;;;;;;6.30;1.30;;;16.70;99.90;;;;;;5035594;28;20132;-65
2022/10/05 02:10:58;;;;;;;7.28;1.50;;;16.70;99.90;;;;;;5017036;28;20046;-65
2022/10/05 02:13:26;;;;;;;8.13;1.45;;;16.70;99.90;;;;;;5017485;28;20038;-62
2022/10/05 02:15:53;;;;;;;6.50;1.60;;;16.70;99.90;;;;;;5017569;28;20042;-62
2022/10/05 02:18:20;;;;;;;7.65;1.50;;;16.80;99.90;;;;;;5035591;28;20511;-62
2022/10/05 02:20:46;;;;;;;14.48;2.13;;;16.70;99.90;;;;;;5034284;28;20049;-65
2022/10/05 02:23:13;;;;;;;7.95;1.60;;;16.80;99.90;;;;;;5034006;28;20045;-66
2022/10/05 02:25:40;;;;;;;5.68;1.40;;;16.80;99.90;;;;;;5017302;28;20067;-60
2022/10/05 02:28:08;;;;;;;4.70;1.25;;;16.80;99.90;;;;;;5017538;28;20386;-65
2022/10/05 02:30:35;;;;;;;9.70;1.83;;;16.80;99.90;;;;;;5017484;28;20044;-61
2022/10/05 02:33:02;;;;;;;5.18;1.50;;;16.80;99.90;;;;;;5001296;28;20103;-63
2022/10/05 02:35:30;;;;;;;5.57;1.25;;;16.80;99.90;;;;;;5016582;28;20082;-61
2022/10/05 02:37:56;;;;;;;6.32;1.42;;;16.80;99.90;;;;;;5017622;28;20040;-60
2022/10/05 02:40:24;;;;;;;7.32;1.67;;;16.80;99.90;;;;;;5017357;28;20046;-61
2022/10/05 02:42:52;;;;;;;3.90;1.10;;;16.80;99.90;;;;;;5015569;28;20128;-64
2022/10/05 02:45:19;;;;;;;8.15;1.30;;;16.80;99.90;;;;;;5017521;28;20041;-61
2022/10/05 02:47:46;;;;;;;6.93;1.63;;;16.80;99.90;;;;;;5017437;28;20068;-63
2022/10/05 02:50:13;;;;;;;7.53;1.80;;;16.80;99.90;;;;;;5015555;28;20047;-64
2022/10/05 02:52:40;;;;;;;10.50;2.75;;;16.80;99.90;;;;;;5032735;28;20087;-62
2022/10/05 02:55:08;;;;;;;8.30;1.70;;;16.80;99.90;;;;;;5033534;28;20068;-62
2022/10/05 02:57:34;;;;;;;4.85;1.23;;;16.80;99.90;;;;;;5033478;28;20052;-63
2022/10/05 03:00:02;;;;;;;6.20;1.42;;;16.80;99.90;;;;;;5033472;28;20041;-63
2022/10/05 03:02:30;;;;;;;5.18;1.33;;;16.80;99.90;;;;;;5017154;28;20049;-63
2022/10/05 03:04:57;;;;;;;6.85;1.42;;;16.80;99.90;;;;;;5016075;28;20076;-63
2022/10/05 03:07:24;;;;;;;6.13;1.27;;;16.80;99.90;;;;;;5034520;28;20400;-63
2022/10/05 03:09:51;;;;;;;5.43;1.30;;;16.80;99.90;;;;;;5016764;28;20099;-61
2022/10/05 03:12:18;;;;;;;5.35;1.48;;;16.80;99.90;;;;;;5016608;28;20048;-65
2022/10/05 03:14:46;;;;;;;5.28;1.30;;;16.80;99.90;;;;;;5016586;28;20038;-65
2022/10/05 03:17:13;;;;;;;8.70;1.65;;;16.80;99.90;;;;;;5033794;28;20472;-63
2022/10/05 03:19:40;;;;;;;7.40;1.70;;;16.80;99.90;;;;;;5014797;28;20037;-62
2022/10/05 03:22:07;;;;;;;6.47;1.40;;;16.80;99.90;;;;;;5034133;28;20132;-65
2022/10/05 03:24:36;;;;;;;5.68;1.52;;;16.80;99.90;;;;;;5015503;28;20511;-63
2022/10/05 03:27:04;;;;;;;4.43;1.50;;;16.80;99.90;;;;;;5034584;28;20034;-60
2022/10/05 03:29:32;;;;;;;6.30;1.42;;;16.80;99.90;;;;;;5033174;28;20033;-65
2022/10/05 03:31:58;;;;;;;6.35;1.25;;;16.80;99.90;;;;;;5016869;28;20037;-63
2022/10/05 03:34:25;;;;;;;6.78;1.50;;;16.80;99.90;;;;;;5015761;28;20523;-60
2022/10/05 03:36:53;;;;;;;6.07;1.23;;;16.80;99.90;;;;;;5016434;28;20100;-61
2022/10/05 03:39:20;;;;;;;7.18;1.85;;;16.80;99.90;;;;;;5032747;28;20041;-62
2022/10/05 03:41:46;;;;;;;5.43;1.30;;;16.80;99.90;;;;;;5015231;28;20045;-64
2022/10/05 03:44:14;;;;;;;6.50;1.40;;;16.80;99.90;;;;;;5016157;28;20088;-61
2022/10/05 03:46:40;;;;;;;6.50;1.70;;;16.80;99.90;;;;;;5016584;28;20049;-61
2022/10/05 03:49:07;;;;;;;6.93;1.63;;;16.80;99.90;;;;;;5015110;28;20037;-61
2022/10/05 03:51:34;;;;;;;7.38;1.45;;;16.80;99.90;;;;;;5015259;28;20050;-62
2022/10/05 03:54:01;;;;;;;6.40;1.45;;;16.80;99.90;;;;;;5015878;28;20045;-64
2022/10/05 03:56:28;;;;;;;6.13;1.30;;;16.80;99.90;;;;;;5014740;28;20056;-61
2022/10/05 03:58:54;;;;;;;6.32;1.50;;;16.80;99.90;;;;;;5014820;28;20469;-66
2022/10/05 04:01:22;;;;;;;6.20;1.60;;;16.80;99.90;;;;;;5015952;28;20073;-63
2022/10/05 04:03:49;;;;;;;8.50;1.67;;;16.80;99.90;;;;;;5013760;28;20049;-62
2022/10/05 04:06:16;;;;;;;7.57;1.77;;;16.80;99.90;;;;;;5032920;28;20065;-67
2022/10/05 04:08:43;;;;;;;8.75;2.08;;;16.70;99.90;;;;;;5014119;28;20052;-65
2022/10/05 04:11:13;;;;;;;10.52;1.85;;;16.80;99.90;;;;;;5015475;28;20045;-64
2022/10/05 04:13:40;;;;;;;8.23;1.70;;;16.80;99.90;;;;;;5031228;28;20041;-65
2022/10/05 04:16:08;;;;;;;7.90;2.20;;;16.70;99.90;;;;;;5015497;28;20041;-64
2022/10/05 04:18:34;;;;;;;7.38;2.03;;;16.70;99.90;;;;;;5031441;28;20084;-62
2022/10/05 04:21:02;;;;;;;7.72;1.92;;;16.80;99.90;;;;;;5015386;28;20053;-62
2022/10/05 04:23:29;;;;;;;6.22;1.50;;;16.70;99.90;;;;;;5015802;28;20045;-64
2022/10/05 04:25:56;;;;;;;9.95;1.80;;;16.70;99.90;;;;;;5014790;28;20412;-64
2022/10/05 04:28:24;;;;;;;11.52;1.95;;;16.70;99.90;;;;;;5014762;28;20041;-62
2022/10/05 04:30:57;;;;;;;7.75;1.83;;;16.70;99.90;;;;;;5015643;28;20111;-61
2022/10/05 04:33:24;;;;;;;8.13;1.70;;;16.70;99.90;;;;;;5014865;28;20064;-62
2022/10/05 04:35:51;;;;;;;7.00;1.50;;;16.70;99.90;;;;;;5015120;28;20489;-63
2022/10/05 04:38:19;;;;;;;7.78;1.92;;;16.70;99.90;;;;;;5015786;28;20041;-61
2022/10/05 04:40:46;;;;;;;6.60;1.77;;;16.70;99.90;;;;;;5014151;28;20129;-62
2022/10/05 04:43:14;;;;;;;6.55;1.52;;;16.70;99.90;;;;;;5014666;28;20053;-61
2022/10/05 04:45:41;;;;;;;5.88;1.42;;;16.70;99.90;;;;;;5016661;28;20041;-62
2022/10/05 04:48:07;;;;;;;10.05;1.73;;;16.80;99.90;;;;;;5001726;28;20476;-65
2022/10/05 04:50:34;;;;;;;7.45;1.80;;;16.80;99.90;;;;;;5019528;28;20107;-62
2022/10/05 04:53:05;;;;;;;6.55;1.60;;;16.80;99.90;;;;;;5018334;28;20045;-67
2022/10/05 04:55:33;;;;;;;4.10;1.40;;;16.80;99.90;;;;;;5036860;28;20501;-65
2022/10/05 04:58:01;;;;;;;10.52;1.73;;;16.80;99.90;;;;;;5037290;28;20107;-64
2022/10/05 05:00:27;;;;;;;6.97;1.50;;;16.80;99.90;;;;;;5017973;28;20045;-62
2022/10/05 05:02:54;;;;;;;8.57;1.70;;;16.80;99.90;;;;;;5016961;28;20053;-62
2022/10/05 05:05:21;;;;;;;8.88;1.83;;;16.80;99.90;;;;;;5018268;28;20053;-62
2022/10/05 05:07:50;;;;;;;8.85;2.05;;;16.80;99.90;;;;;;5018256;28;20072;-64
2022/10/05 05:10:17;;;;;;;6.68;1.55;;;16.80;99.90;;;;;;5019066;28;20058;-62
2022/10/05 05:12:44;;;;;;;8.88;1.58;;;16.80;99.90;;;;;;5035484;28;20045;-64
2022/10/05 05:15:10;;;;;;;6.65;1.38;;;16.80;99.90;;;;;;5017179;28;20073;-61
2022/10/05 05:17:37;;;;;;;5.60;1.75;;;16.80;99.90;;;;;;5015682;28;20056;-63
2022/10/05 05:20:04;;;;;;;5.90;1.27;;;16.80;99.90;;;;;;5017879;28;20373;-63
2022/10/05 05:22:31;;;;;;;6.95;1.50;;;16.80;99.90;;;;;;5017880;28;20065;-63
2022/10/05 05:24:58;;;;;;;7.63;1.75;;;16.80;99.90;;;;;;5018618;28;20396;-62
2022/10/05 05:27:25;;;;;;;7.70;1.50;;;16.80;99.90;;;;;;5017858;28;20041;-61
2022/10/05 05:29:52;;;;;;;4.78;1.50;;;16.80;99.90;;;;;;5035615;28;20448;-62
2022/10/05 05:32:19;;;;;;;7.47;1.67;;;16.80;99.90;;;;;;5016694;28;20037;-62
2022/10/05 05:34:47;;;;;;;5.32;1.58;;;16.80;99.90;;;;;;5017713;28;20099;-64
2022/10/05 05:37:13;;;;;;;6.72;1.50;;;16.80;99.90;;;;;;5017882;28;20041;-62
2022/10/05 05:39:40;;;;;;;6.20;1.60;;;16.80;99.90;;;;;;5017013;28;20374;-63
2022/10/05 05:42:07;;;;;;;7.63;1.75;;;16.80;99.90;;;;;;5017447;28;20100;-62
2022/10/05 05:44:34;;;;;;;8.65;1.52;;;16.80;99.90;;;;;;5017646;28;20481;-64
2022/10/05 05:47:04;;;;;;;6.30;1.60;;;16.80;99.90;;;;;;5018023;28;20068;-62
2022/10/05 05:49:37;;;;;;;9.88;1.70;;;16.80;99.90;;;;;;5017588;28;20076;-65
2022/10/05 05:52:03;;;;;;;6.15;1.70;;;16.80;99.90;;;;;;5017514;28;20045;-61
2022/10/05 05:54:30;;;;;;;6.57;1.63;;;16.90;99.90;;;;;;5016331;28;20488;-60
2022/10/05 05:56:57;;;;;;;8.57;1.67;;;16.90;99.90;;;;;;5017236;28;20048;-61
2022/10/05 05:59:24;;;;;;;7.35;1.98;;;16.90;99.90;;;;;;5014163;28;20092;-63
2022/10/05 06:01:51;;;;;;;6.72;1.52;;;16.80;99.90;;;;;;5035418;28;20045;-66
2022/10/05 06:04:18;;;;;;;6.78;1.60;;;16.80;99.90;;;;;;5016802;28;20168;-64
2022/10/05 06:06:45;;;;;;;6.90;1.85;;;16.80;99.90;;;;;;5016076;28;20042;-65
2022/10/05 06:09:12;;;;;;;8.93;2.00;;;16.90;99.90;;;;;;5033428;28;20468;-63
2022/10/05 06:11:43;;;;;;;9.18;1.70;;;16.80;99.90;;;;;;5017684;28;20477;-62
2022/10/05 06:14:10;;;;;;;7.78;1.95;;;16.90;99.90;;;;;;5017128;28;20053;-61
2022/10/05 06:16:38;;;;;;;12.07;1.95;;;16.90;99.90;;;;;;5017215;28;20049;-62
2022/10/05 06:19:05;;;;;;;7.68;1.92;;;16.80;99.90;;;;;;5016291;28;20064;-65
2022/10/05 06:21:32;;;;;;;6.60;1.83;;;16.80;99.90;;;;;;5028885;28;20570;-62
2022/10/05 06:23:59;;;;;;;10.77;1.65;;;16.90;99.90;;;;;;5035143;28;20121;-63
2022/10/05 06:26:26;;;;;;;8.57;1.77;;;16.90;99.90;;;;;;5008169;28;20140;-62
2022/10/05 06:28:52;;;;;;;10.27;1.92;;;16.80;99.90;;;;;;5031581;28;20042;-65
2022/10/05 06:31:20;;;;;;;6.10;1.40;;;16.80;99.90;;;;;;5016288;28;20391;-63
2022/10/05 06:33:51;;;;;;;6.80;1.70;;;16.80;99.90;;;;;;5014700;28;20030;-64
2022/10/05 06:36:23;;;;;;;7.35;1.90;;;16.80;99.90;;;;;;5016643;28;20136;-63
2022/10/05 06:38:50;;;;;;;6.03;1.75;;;16.90;99.90;;;;;;5031853;28;20444;-61
2022/10/05 06:41:17;;;;;;;6.28;1.55;;;16.90;99.90;;;;;;5030639;28;20116;-64
2022/10/05 06:43:44;;;;;;;5.78;1.50;;;16.90;99.90;;;;;;5016443;28;20057;-64
2022/10/05 06:46:31;;;;;;;6.32;1.50;;;16.90;99.90;;;;;;5015379;28;20034;-65
2022/10/05 06:49:15;;;;;;;12.18;1.85;;;16.90;99.90;;;;;;5015345;28;20041;-64
2022/10/05 06:52:04;;;;;;;6.88;1.48;;;16.90;99.90;;;;;;5033147;28;20050;-63
2022/10/05 06:54:36;;;;;;;7.00;1.33;;;16.90;99.90;;;;;;5015382;28;20382;-62
2022/10/05 06:57:03;;;;;;;7.38;1.60;;;16.90;99.90;;;;;;5016874;28;20037;-62
2022/10/05 06:59:30;;;;;;;6.38;1.33;;;16.90;99.90;;;;;;4998362;28;20048;-64
2022/10/05 07:01:57;;;;;;;5.75;1.48;;;16.90;99.90;;;;;;5014964;28;20041;-63
2022/10/05 07:04:25;;;;;;;6.97;1.50;;;16.90;99.90;;;;;;5015693;28;20046;-63
2022/10/05 07:06:52;;;;;;;5.10;1.27;;;17.00;99.90;;;;;;5031732;28;20523;-62
2022/10/05 07:09:20;;;;;;;6.45;2.03;;;17.00;99.90;;;;;;5013013;28;20053;-61
2022/10/05 07:11:47;;;;;;;7.22;1.77;;;17.00;99.90;;;;;;5030822;28;20049;-61
2022/10/05 07:14:22;;;;;;;6.07;1.40;;;17.00;99.90;;;;;;5019137;28;20055;-64
2022/10/05 07:16:49;;;;;;;7.15;1.30;;;17.10;99.90;;;;;;5035607;28;20045;-65
2022/10/05 07:19:16;;;;;;;7.57;1.40;;;17.10;99.90;;;;;;5043006;28;20029;-65
2022/10/05 07:21:43;;;;;;;6.28;1.23;;;17.10;99.90;;;;;;5033929;28;20488;-65
2022/10/05 07:24:10;;;;;;;5.90;1.60;;;17.10;99.90;;;;;;5016617;28;20049;-63
2022/10/05 07:26:37;;;;;;;5.55;1.10;;;17.10;99.90;;;;;;5034181;28;20048;-63
2022/10/05 07:29:03;;;;;;;8.52;1.50;;;17.10;99.90;;;;;;5016604;28;20052;-64
2022/10/05 07:31:31;;;;;;;4.72;1.20;;;17.20;99.90;;;;;;5032565;28;20358;-62
2022/10/05 07:33:57;;;;;;;4.63;1.23;;;17.20;99.90;;;;;;5022830;28;20037;-67
2022/10/05 07:39:10;;;;;;;4.82;1.30;;;17.20;99.90;;;;;;5027970;28;20052;-62
2022/10/05 07:41:38;;;;;;;8.90;1.73;;;17.20;99.90;;;;;;5033687;28;20107;-63
2022/10/05 07:44:06;;;;;;;8.30;1.42;;;17.20;99.90;;;;;;5023397;28;20041;-63
2022/10/05 07:46:39;;;;;;;6.30;1.60;;;17.30;99.90;;;;;;5014806;28;20585;-66
2022/10/05 07:49:06;;;;;;;5.40;1.15;;;17.30;99.90;;;;;;5015807;28;20036;-66
2022/10/05 07:51:33;;;;;;;10.77;1.55;;;17.40;99.90;;;;;;5022990;28;20099;-63
2022/10/05 07:53:59;;;;;;;5.78;1.33;;;17.40;99.90;;;;;;5016533;28;20146;-66
2022/10/05 07:56:26;;;;;;;5.60;1.40;;;17.40;99.90;;;;;;5014384;28;20128;-64
2022/10/05 07:58:53;;;;;;;6.03;1.58;;;17.40;99.90;;;;;;5013733;28;20397;-62
2022/10/05 08:01:21;;;;;;;4.97;1.42;;;17.50;99.90;;;;;;5029646;28;20128;-63
2022/10/05 08:03:52;;;;;;;7.00;1.45;;;17.50;99.90;;;;;;5013716;28;20443;-61
2022/10/05 08:06:20;;;;;;;6.97;1.52;;;17.50;99.90;;;;;;5028627;28;20515;-63
2022/10/05 08:08:46;;;;;;;10.45;1.67;;;17.60;99.90;;;;;;5032282;28;20034;-64
2022/10/05 08:11:13;;;;;;;7.97;1.58;;;17.60;99.90;;;;;;5030909;28;20088;-63
2022/10/05 08:13:40;;;;;;;6.47;1.48;;;17.70;99.90;;;;;;5027317;28;20037;-64
2022/10/05 08:16:08;;;;;;;6.70;1.75;;;17.80;99.90;;;;;;5032729;28;20057;-66
2022/10/05 08:18:35;;;;;;;9.02;1.83;;;17.90;99.90;;;;;;5036695;28;20448;-69
2022/10/05 08:21:05;;;;;;;8.05;1.90;;;17.90;99.90;;;;;;5030620;28;20103;-64
2022/10/05 08:23:32;;;;;;;8.80;1.60;;;17.90;99.90;;;;;;5023137;28;20037;-64
2022/10/05 08:25:58;;;;;;;9.25;1.70;;;17.90;99.90;;;;;;5033299;28;20120;-66
2022/10/05 08:28:25;;;;;;;25.52;3.55;;;17.90;99.90;;;;;;5032005;28;20183;-64
2022/10/05 08:30:52;;;;;;;8.93;2.15;;;17.90;99.90;;;;;;5030793;28;20037;-65
2022/10/05 08:33:19;;;;;;;12.25;2.35;;;17.80;99.90;;;;;;5030273;28;20087;-63
2022/10/05 08:35:46;;;;;;;54.78;6.53;;;17.80;99.90;;;;;;5031009;28;20485;-66
2022/10/05 08:38:15;;;;;;;13.70;2.10;;;17.80;99.90;;;;;;5036945;28;20060;-67
2022/10/05 08:40:42;;;;;;;9.88;2.00;;;17.80;99.90;;;;;;5039679;28;20038;-63
2022/10/05 08:43:08;;;;;;;7.72;1.70;;;17.80;99.90;;;;;;5032263;28;20128;-63
2022/10/05 08:45:35;;;;;;;29.70;4.05;;;17.80;99.90;;;;;;5037120;28;20045;-64
2022/10/05 08:48:02;;;;;;;9.45;1.95;;;17.80;99.90;;;;;;5030031;28;20480;-67
2022/10/05 08:50:30;;;;;;;81.28;9.00;;;17.80;99.90;;;;;;5039193;28;20091;-63
2022/10/05 08:52:56;;;;;;;9.55;1.80;;;17.90;99.90;;;;;;5035443;28;20111;-67
2022/10/05 08:55:23;;;;;;;8.07;1.83;;;17.90;99.90;;;;;;5012981;28;20077;-66
2022/10/05 08:57:50;;;;;;;9.13;1.90;;;18.00;99.90;;;;;;5029871;28;20546;-65
2022/10/05 09:00:16;;;;;;;10.90;2.00;;;18.10;99.90;;;;;;5032232;28;20548;-62
2022/10/05 09:02:43;;;;;;;9.70;1.90;;;18.10;99.90;;;;;;5031690;28;20084;-63
2022/10/05 09:05:10;;;;;;;5.10;1.65;;;18.20;99.90;;;;;;5040959;28;20045;-65
2022/10/05 09:07:37;;;;;;;12.68;2.05;;;18.30;99.90;;;;;;5036754;28;20053;-65
2022/10/05 09:10:03;;;;;;;8.00;1.70;;;18.40;99.90;;;;;;5030844;28;20075;-65
2022/10/05 09:12:30;;;;;;;7.03;1.63;;;18.50;99.90;;;;;;5029116;28;20128;-65
2022/10/05 09:14:57;;;;;;;16.65;1.95;;;18.60;99.90;;;;;;5034873;28;20120;-62
2022/10/05 09:17:44;;;;;;;5.75;1.77;;;18.70;99.90;;;;;;5033259;28;20342;-65
2022/10/05 09:20:11;;;;;;;9.25;2.20;;;18.80;99.90;;;;;;5045369;28;20480;-62
2022/10/05 09:22:38;;;;;;;10.40;2.22;;;18.90;99.90;;;;;;5038099;28;20455;-65
2022/10/05 09:25:04;;;;;;;7.30;1.70;;;19.10;99.90;;;;;;5035199;28;20037;-63
2022/10/05 09:27:31;;;;;;;9.98;1.60;;;19.10;99.80;;;;;;5027410;28;20519;-63
2022/10/05 09:29:58;;;;;;;8.90;2.33;;;19.20;99.90;;;;;;5034494;28;20091;-65
2022/10/05 09:32:26;;;;;;;7.72;1.67;;;19.30;99.70;;;;;;5035402;28;20038;-64
2022/10/05 09:34:54;;;;;;;11.45;1.80;;;19.30;99.40;;;;;;5034591;28;20042;-64
2022/10/05 09:37:21;;;;;;;10.05;1.63;;;19.40;99.60;;;;;;5045726;28;20125;-66
2022/10/05 09:39:47;;;;;;;6.65;1.40;;;19.50;99.50;;;;;;5036794;28;20029;-64
2022/10/05 09:42:14;;;;;;;11.35;1.77;;;19.50;99.50;;;;;;5045960;28;20072;-63
2022/10/05 09:44:41;;;;;;;9.15;2.00;;;19.60;99.30;;;;;;5033901;28;20124;-68
2022/10/05 09:47:08;;;;;;;10.75;1.85;;;19.60;99.10;;;;;;5039057;28;20095;-65
2022/10/05 09:49:34;;;;;;;8.75;1.60;;;19.60;99.00;;;;;;5035937;28;20041;-62
2022/10/05 09:52:01;;;;;;;7.40;1.77;;;19.70;99.20;;;;;;5041291;28;20076;-62
2022/10/05 09:54:28;;;;;;;7.72;1.77;;;19.80;98.80;;;;;;5041403;28;20037;-63
2022/10/05 09:56:54;;;;;;;6.93;1.60;;;19.80;98.90;;;;;;5013275;28;20099;-65
2022/10/05 09:59:21;;;;;;;8.38;1.85;;;19.80;98.90;;;;;;5040205;28;20052;-65
2022/10/05 10:01:49;;;;;;;7.85;1.48;;;19.70;98.60;;;;;;5038100;28;20214;-63
2022/10/05 10:04:17;;;;;;;9.73;2.00;;;19.70;98.70;;;;;;5040260;28;20081;-65
2022/10/05 10:06:44;;;;;;;7.75;1.83;;;19.70;98.80;;;;;;5036683;28;20045;-66
2022/10/05 10:09:10;;;;;;;11.80;2.50;;;19.60;98.80;;;;;;5039744;28;20458;-61
2022/10/05 10:11:37;;;;;;;13.00;2.20;;;19.60;99.10;;;;;;5034947;28;20104;-63
2022/10/05 10:14:04;;;;;;;7.68;1.95;;;19.60;98.90;;;;;;5041308;28;20488;-63
2022/10/05 10:16:31;;;;;;;9.38;1.85;;;19.60;98.80;;;;;;5034240;28;20041;-61
2022/10/05 10:18:58;;;;;;;8.48;2.00;;;19.50;98.90;;;;;;5036219;28;20034;-62
2022/10/05 10:21:24;;;;;;;7.53;1.70;;;19.60;99.00;;;;;;5032375;28;20551;-64
2022/10/05 10:23:53;;;;;;;12.27;2.25;;;19.60;98.80;;;;;;5034177;28;20095;-66
2022/10/05 10:26:20;;;;;;;9.68;1.90;;;19.60;99.10;;;;;;5047975;28;20390;-65
2022/10/05 10:28:47;;;;;;;9.90;2.28;;;19.70;99.10;;;;;;5039313;28;20042;-62
2022/10/05 10:31:13;;;;;;;8.35;1.70;;;19.70;98.90;;;;;;5044298;28;20044;-64
2022/10/05 10:33:40;;;;;;;9.75;2.33;;;19.70;98.90;;;;;;5034870;28;20116;-64
2022/10/05 10:36:07;;;;;;;8.57;2.03;;;19.70;98.70;;;;;;5033079;28;20065;-63
2022/10/05 10:38:34;;;;;;;6.95;1.80;;;19.70;98.80;;;;;;5042661;28;20388;-64
2022/10/05 10:41:00;;;;;;;12.27;1.83;;;19.70;99.00;;;;;;5045795;28;20069;-62
2022/10/05 10:43:28;;;;;;;8.35;2.17;;;19.60;98.80;;;;;;5048599;28;20116;-64
2022/10/05 10:45:55;;;;;;;10.35;2.30;;;19.60;99.00;;;;;;5034721;28;20049;-65
2022/10/05 10:48:22;;;;;;;10.02;2.17;;;19.60;99.10;;;;;;5033984;28;20143;-65
2022/10/05 10:50:49;;;;;;;11.40;2.45;;;19.50;99.10;;;;;;5034505;28;20046;-64
2022/10/05 10:53:16;;;;;;;11.10;2.30;;;19.50;99.10;;;;;;5028074;28;20456;-62
2022/10/05 10:55:42;;;;;;;8.30;2.05;;;19.40;99.10;;;;;;5033991;28;20057;-62
2022/10/05 10:58:09;;;;;;;10.27;2.50;;;19.40;99.20;;;;;;5041731;28;20045;-61
2022/10/05 11:00:42;;;;;;;9.52;2.60;;;19.50;99.20;;;;;;5046131;28;20041;-62
2022/10/05 11:03:08;;;;;;;10.05;2.35;;;19.50;99.20;;;;;;5035748;28;20072;-62
2022/10/05 11:05:35;;;;;;;12.57;2.30;;;19.40;99.30;;;;;;5034652;28;20079;-66
2022/10/05 11:08:02;;;;;;;9.98;2.17;;;19.50;99.20;;;;;;5040044;28;20103;-66
2022/10/05 11:10:29;;;;;;;10.52;2.30;;;19.60;99.30;;;;;;5054011;28;20052;-64
2022/10/05 11:12:56;;;;;;;12.52;2.10;;;19.60;99.20;;;;;;5040330;28;20140;-60
2022/10/05 11:15:23;;;;;;;11.10;2.10;;;19.70;99.20;;;;;;5034157;28;20107;-65
2022/10/05 11:17:50;;;;;;;10.52;2.33;;;19.80;99.00;;;;;;5033267;28;20059;-63
2022/10/05 11:20:17;;;;;;;8.32;2.03;;;19.80;98.80;;;;;;5033236;28;20448;-64
2022/10/05 11:22:43;;;;;;;12.52;2.20;;;19.90;98.90;;;;;;5043021;28;20058;-63
2022/10/05 11:25:10;;;;;;;12.75;2.58;;;20.00;98.90;;;;;;5034021;28;20047;-63
2022/10/05 11:27:37;;;;;;;11.93;1.98;;;20.10;98.70;;;;;;5038616;28;20472;-66
2022/10/05 11:30:04;;;;;;;10.73;2.53;;;20.10;98.70;;;;;;5031572;28;20558;-62
2022/10/05 11:32:30;;;;;;;10.63;2.83;;;20.10;98.60;;;;;;5038505;28;20102;-61
2022/10/05 11:34:57;;;;;;;9.80;1.90;;;20.10;98.70;;;;;;5032981;28;20034;-63
2022/10/05 11:37:24;;;;;;;11.32;2.35;;;20.20;98.70;;;;;;5034658;28;20038;-61
2022/10/05 11:39:50;;;;;;;7.60;2.15;;;20.30;98.70;;;;;;5033246;28;20045;-62
2022/10/05 11:42:17;;;;;;;7.40;1.80;;;20.30;98.50;;;;;;5044114;28;20041;-64
2022/10/05 11:44:44;;;;;;;12.93;1.95;;;20.30;98.60;;;;;;5040868;28;20086;-62
2022/10/05 11:47:11;;;;;;;10.07;2.00;;;20.40;98.60;;;;;;5052112;28;20044;-66
2022/10/05 11:49:37;;;;;;;8.43;1.83;;;20.30;98.60;;;;;;5042545;28;20120;-64
2022/10/05 11:52:05;;;;;;;9.27;1.95;;;20.40;98.70;;;;;;5033799;28;20072;-62
2022/10/05 11:54:32;;;;;;;8.30;2.00;;;20.50;98.90;;;;;;5032990;28;20049;-61
2022/10/05 11:57:18;;;;;;;7.25;2.03;;;20.50;98.70;;;;;;5026527;28;20571;-63
2022/10/05 11:59:45;;;;;;;10.73;2.20;;;20.60;98.60;;;;;;5031849;28;20034;-67
2022/10/05 12:02:13;;;;;;;9.38;2.20;;;20.60;98.70;;;;;;5042976;28;20125;-61
2022/10/05 12:04:39;;;;;;;7.93;1.85;;;20.50;98.70;;;;;;5053323;28;20049;-64
2022/10/05 12:07:06;;;;;;;11.52;1.88;;;20.50;98.90;;;;;;5040267;28;20038;-66
2022/10/05 12:09:33;;;;;;;8.82;2.00;;;20.50;98.90;;;;;;5039662;28;20102;-65
2022/10/05 12:12:00;;;;;;;12.65;2.10;;;20.40;99.20;;;;;;5047870;28;20123;-64
2022/10/05 12:14:26;;;;;;;11.77;1.55;;;20.50;99.30;;;;;;5041021;28;20083;-61
2022/10/05 12:16:53;;;;;;;8.63;1.45;;;20.50;99.40;;;;;;5053300;28;20041;-66
2022/10/05 12:19:22;;;;;;;6.32;1.40;;;20.50;99.60;;;;;;5040540;28;20072;-60
2022/10/05 12:21:49;;;;;;;7.90;1.65;;;20.40;99.90;;;;;;5033267;28;20099;-64
2022/10/05 12:24:16;;;;;;;7.50;1.58;;;20.40;99.90;;;;;;5033269;28;20480;-62
2022/10/05 12:26:43;;;;;;;5.47;1.45;;;20.30;99.90;;;;;;5033057;28;20099;-61
2022/10/05 12:29:10;;;;;;;5.72;1.45;;;20.10;99.90;;;;;;5033025;28;20068;-64
2022/10/05 12:31:37;;;;;;;8.68;1.60;;;20.10;99.90;;;;;;5052715;28;20044;-64
2022/10/05 12:34:03;;;;;;;6.63;1.67;;;20.10;99.90;;;;;;5042279;28;20050;-63
2022/10/05 12:36:30;;;;;;;4.68;1.58;;;20.00;99.90;;;;;;5035170;28;20042;-65
2022/10/05 12:39:17;;;;;;;9.38;1.60;;;20.00;99.90;;;;;;5033296;28;20064;-62
2022/10/05 12:41:44;;;;;;;8.23;1.70;;;19.90;99.90;;;;;;5015717;28;20100;-63
2022/10/05 12:44:11;;;;;;;5.60;1.60;;;19.80;99.90;;;;;;5032860;28;20048;-61
2022/10/05 12:46:38;;;;;;;4.90;1.42;;;19.60;99.90;;;;;;5047111;28;20048;-65
2022/10/05 12:49:05;;;;;;;5.95;1.35;;;19.40;99.90;;;;;;5048080;28;21004;-64